LSZA

Lugano Airport

Airport
ICAO code
LSZA
IATA Code
LUG
Summary
ICAO Region
EUR
ICAO Territory
Location

Agno, Ticino

Serving
Lugano
Elevation
915 ft
Coordinates
46° 0' 15" N , 8° 54' 38" E
KCC
Cfa
Airport CFIT
Altimeter Temperature Error Correction
Metar
Observation
LSZA 101020Z AUTO 19005KT 150V220 9999 NCD 28/14 Q1020
Station
Lugano
Date/Time
2022-08-10 10:20:00
Wind direction
190°
Wind speed
05 kts
Lowest cloud amount
no clouds detected
Temperature
28°C
Dew point
14°C
Humidity
42%
QNH
1020 hPa
Weather condition
n/a

Lugano Airport is a regional airport located 4 km west of the Swiss city of Lugano, in the municipalities of Agno, Bioggio and Muzzano. It lies closer to the village of Agno than to Lugano itself, and is sometimes known as Lugano-Agno.

Climatology

Humid “subtropical” climate (Köppen climate classification Cfa)

Runways

Designator Length Width Surface Rops
1/19 1350 30 ASP Yes/Yes

Airport map

Aerial View

SKYbrary Partners:

Safety knowledge contributed by: